x

Saxon Harbor, Wi (sxhw3) Weather Station

8:40am - Fri 28th Nov 2014 All times are CST. -6 hours from GMT.

  • Wind
  • Air Temp 11°f
  • Sea Pressure 1019.3mb
  • Saxon Harbor, Wi
  • Saxon Harbor, Wi

More Historic Weather Station data

Upgrade to MSW Pro to gain access to the past 30 days of data for over 8000 Wavebouys and Weather Stations around the globe.

Join Pro

Comparision Forecast

View Surf forecast
   
Fri 11/28 8:40am  -  7 mph 1019.3mb 11f
8:30am  -  mph 1019.3mb 11f
8:20am  -  mph 1019.6mb 12f
8:10am  -  mph 1019.6mb 11f
8:00am  -  mph 1020mb 11f
7:40am  -  mph 1020mb 11f
7:30am  -  mph 1020mb 11f
7:20am  -  mph 1020mb 11f
7:10am  -  5 mph 1020mb 11f
7:00am  -  18 mph 1020mb 11f
6:40am 1 14 mph 1020.3mb 10f
6:30am  -  23 mph 1020.7mb 10f
6:20am  -  6 mph 1021mb 10f
6:10am  -  11 mph 1021mb 10f
6:00am  -  mph 1021.3mb 10f
5:40am 2 10 mph 1021.7mb 10f
5:30am 2 9 mph 1021.7mb 10f
5:20am 1 29 mph 1022mb 10f
5:10am 1 11 mph 1022.4mb 10f
5:00am  -  5 mph 1022.7mb 9f
4:40am  -  mph 1023mb 9f
4:30am  -  mph 1023mb 8f
4:20am  -  mph 1022.7mb 8f
4:10am  -  mph 1023mb 8f
4:00am  -  6 mph 1023mb 8f
3:40am  -  29 mph 1023.4mb 8f
3:30am 1 13 mph 1023.7mb 7f
3:20am  -  9 mph 1023.7mb 7f
3:10am  -  mph 1024.4mb 7f
3:00am  -  6 mph 1024mb 7f
2:40am  -  22 mph 1024mb 6f
2:30am 2 16 mph 1024mb 7f
2:20am  -  10 mph 1024.4mb 6f
2:10am  -  28 mph 1025.1mb 6f
2:00am  -  6 mph 1025.1mb 6f
1:40am 2 11 mph 1025.4mb 6f
1:30am  -  8 mph 1025.4mb 6f
1:20am  -  mph 1025.4mb 6f
1:10am  -  mph 1025.7mb 6f
1:00am  -  mph 1025.7mb 5f
12:40am  -  6 mph 1025.7mb 5f
12:30am  -  16 mph 1025.7mb 5f
12:20am  -  8 mph 1025.7mb 4f
12:10am  -  14 mph 1026.1mb 4f
12:00am 2 18 mph 1026.1mb 3f
Thu 11/27 11:40pm 3 8 mph 1026.4mb 2f
11:30pm 6 9 mph 1026.4mb 2f
11:20pm 3 10 mph 1026.4mb 2f
11:10pm 5 32 mph 1026.4mb -
11:08pm  -  32 mph 1026.4mb -
11:00pm 2 10 mph 1026.4mb -1f
10:40pm 5 15 mph 1026.8mb -
10:30pm 2 22 mph 1026.8mb -1f
10:20pm 2 11 mph 1026.8mb -
10:10pm 3 20 mph 1026.8mb -1f
10:00pm 3 17 mph 1026.8mb -1f
9:41pm 2 34 mph 1027.1mb -
9:40pm 2 13 mph 1027.1mb -
9:30pm  -  10 mph 1026.8mb -
9:20pm  -  8 mph 1027.4mb -1f
9:10pm 1 11 mph 1027.4mb 1f
9:00pm 6 33 mph 1027.4mb -1f
8:40pm  -  14 mph 1027.4mb -1f
8:30pm  -  2 mph 1027.8mb -2f
8:20pm  -  37 mph 1027.8mb -1f
8:10pm  -  37 mph 1027.8mb -1f
8:00pm  -  5 mph 1027.8mb -2f
7:40pm  -  24 mph 1027.8mb -1f
7:30pm  -  3 mph 1027.8mb -1f
7:20pm  -  5 mph 1028.1mb -
7:10pm  -  34 mph 1028.1mb -
7:00pm  -  2 mph 1028.4mb -
6:40pm  -  14 mph 1028.8mb 1f
6:30pm  -  23 mph 1028.8mb 2f
6:20pm 1 20 mph 1029.1mb 2f
6:10pm  -  30 mph 1028.8mb 3f
6:06pm  -  30 mph 1028.8mb 3f
6:00pm  -  29 mph 1028.8mb 3f
5:40pm  -  mph 1028.8mb 4f
5:30pm  -  mph 1029.1mb 5f
5:20pm  -  mph 1028.8mb 5f
5:10pm  -  mph 1028.8mb 6f
5:00pm  -  mph 1029.1mb 6f
4:40pm  -  mph 1029.1mb 7f
4:30pm  -  mph 1029.1mb 8f
4:20pm  -  6 mph 1029.1mb 10f
4:10pm  -  9 mph 1029.1mb 10f
4:00pm 2 7 mph 1029.1mb 11f
3:40pm 1 7 mph 1029.5mb 12f
3:30pm 3 9 mph 1029.5mb 12f
3:20pm 6 9 mph 1029.5mb 13f
3:10pm 3 9 mph 1029.5mb 14f
3:00pm 1 8 mph 1029.5mb 14f
2:40pm 3 8 mph 1029.5mb 14f
2:30pm 6 11 mph 1029.5mb 14f
2:20pm 2 9 mph 1029.5mb 13f
2:10pm 2 7 mph 1029.1mb 13f
2:00pm  -  8 mph 1029.1mb 13f
1:40pm 8 10 mph 1029.5mb 13f
1:30pm 5 10 mph 1029.5mb 13f
1:20pm 6 10 mph 1029.5mb 13f
1:10pm 8 14 mph 1029.5mb 13f
1:00pm 8 11 mph 1029.5mb 13f
12:40pm 10 14 mph 1029.8mb 13f
12:30pm 10 13 mph 1029.8mb 13f
12:20pm 5 10 mph 1030.1mb 13f
12:10pm 7 11 mph 1030.1mb 13f
12:00pm 6 10 mph 1030.1mb 12f
11:40am 9 13 mph 1030.1mb 12f
11:30am 8 13 mph 1030.1mb 13f
11:20am 9 13 mph 1030.1mb 13f
11:10am 10 14 mph 1030.1mb 13f
11:00am 7 13 mph 1030.5mb 12f
10:40am 5 9 mph 1030.5mb 11f
10:30am 8 17 mph 1030.8mb 11f
10:20am 2 10 mph 1030.8mb 10f
10:10am 2 9 mph 1030.8mb 10f
10:00am 3 11 mph 1030.8mb 10f
9:50am 3 14 mph 1030.5mb 11f
9:40am 8 15 mph 1030.5mb 12f
9:30am 13 16 mph 1030.5mb 12f
9:20am 13 18 mph 1030.1mb 12f
9:10am 13 18 mph 1030.1mb 12f
9:00am 13 18 mph 1030.1mb 12f
8:50am 15 20 mph 1030.1mb 12f
8:40am 14 17 mph 1030.1mb 12f
8:30am 13 18 mph 1029.8mb 12f
8:20am 16 21 mph 1029.8mb 12f
8:10am 15 18 mph 1029.5mb 13f
8:00am 17 22 mph 1029.5mb 13f
7:50am 14 20 mph 1029.5mb 13f
7:40am 16 20 mph 1029.5mb 13f
7:30am 14 20 mph 1029.5mb 13f
7:20am 11 16 mph 1029.5mb 13f
7:10am 11 16 mph 1029.5mb 13f
7:00am 14 17 mph 1029.5mb 13f
6:50am 13 18 mph 1029.5mb 13f
6:40am 13 18 mph 1029.1mb 13f
6:30am 10 22 mph 1029.5mb 13f
6:20am 15 21 mph 1029.5mb 13f
6:10am 16 21 mph 1029.1mb 13f
6:00am 9 13 mph 1029.1mb 13f
5:50am 11 17 mph 1029.1mb 13f
5:40am 13 17 mph 1029.1mb 13f
5:30am 6 17 mph 1029.5mb 12f
5:20am 5 11 mph 1029.5mb 11f
5:10am 3 11 mph 1029.1mb 11f
5:00am 3 15 mph 1029.1mb 12f
4:50am 13 16 mph 1029.1mb 14f
4:40am 13 16 mph 1028.8mb 14f
4:30am 9 17 mph 1028.8mb 14f
4:20am 10 17 mph 1028.8mb 14f
4:10am 9 18 mph 1028.4mb 14f
4:00am 14 18 mph 1028.4mb 14f
3:50am 13 17 mph 1028.8mb 14f
3:40am 13 18 mph 1028.4mb 14f
3:30am 14 18 mph 1028.4mb 14f
3:20am 14 17 mph 1028.8mb 14f
3:10am 13 18 mph 1028.4mb 14f
3:00am 14 18 mph 1028.4mb 15f
2:50am 15 21 mph 1028.4mb 14f
2:40am 15 21 mph 1028.4mb 14f
2:30am 16 21 mph 1028.4mb 15f
2:20am 15 21 mph 1028.1mb 15f
2:10am 17 22 mph 1028.1mb 15f
2:00am 17 23 mph 1028.4mb 15f
1:50am 18 24 mph 1028.1mb 16f
1:40am 20 23 mph 1027.8mb 16f
1:30am 16 22 mph 1027.8mb 16f
1:20am 18 24 mph 1027.8mb 17f
1:10am 16 23 mph 1027.8mb 16f
1:00am 16 22 mph 1027.4mb 16f
12:50am 16 22 mph 1027.8mb 17f
12:40am 17 22 mph 1027.4mb 17f
12:30am 17 20 mph 1027.4mb 17f
12:20am 17 22 mph 1027.1mb 17f
12:10am 17 24 mph 1027.1mb 17f
12:00am 18 22 mph 1027.1mb 17f
Wed 11/26 11:50pm 17 23 mph 1027.1mb 18f
11:40pm 17 21 mph 1027.1mb 18f
11:30pm 17 22 mph 1027.1mb 18f
11:20pm 20 24 mph 1026.8mb 19f
11:10pm 18 23 mph 1026.4mb 19f
11:00pm 18 22 mph 1026.4mb 19f
10:50pm 20 24 mph 1026.4mb 19f
10:40pm 20 23 mph 1026.1mb 19f
10:30pm 17 22 mph 1026.1mb 20f
10:20pm 16 24 mph 1026.1mb 20f
10:10pm 18 23 mph 1026.1mb 20f
10:00pm 18 23 mph 1025.7mb 20f
9:50pm 17 24 mph 1025.7mb 21f
9:40pm 20 25 mph 1025.7mb 20f
9:30pm 20 24 mph 1025.7mb 21f
9:20pm 18 24 mph 1025.4mb 21f
9:10pm 18 23 mph 1025.4mb 21f
9:00pm 20 24 mph 1025.4mb 21f
8:50pm 17 22 mph 1025.4mb 22f
8:40pm 16 22 mph 1025.4mb 22f
8:30pm 16 22 mph 1025.4mb 22f
8:20pm 20 23 mph 1025.4mb 22f
8:10pm 17 22 mph 1025.4mb 22f
8:00pm 20 22 mph 1025.1mb 23f
7:50pm 21 23 mph 1025.1mb 22f
7:40pm 21 23 mph 1025.1mb 23f
7:30pm 20 23 mph 1025.1mb 23f
7:20pm 18 23 mph 1024.7mb 24f
7:10pm 18 23 mph 1024.7mb 24f
7:00pm 18 23 mph 1024.7mb 24f
6:50pm 18 23 mph 1024.7mb 24f
6:40pm 17 22 mph 1024.7mb 24f
6:30pm 18 21 mph 1024.4mb 24f
6:20pm 15 20 mph 1024.4mb 25f
6:10pm 13 16 mph 1024.4mb 25f
6:00pm 11 16 mph 1024.4mb 25f
5:50pm 13 15 mph 1024.4mb 25f
5:40pm 14 18 mph 1024mb 25f
5:30pm 15 17 mph 1024mb 25f
5:20pm 13 15 mph 1024mb 25f
5:10pm 11 15 mph 1024.4mb 25f
5:00pm 10 17 mph 1024mb 25f
4:50pm 14 18 mph 1024mb 25f
4:40pm 15 18 mph 1023.7mb 25f
4:30pm 13 16 mph 1023.7mb 25f
4:20pm 15 17 mph 1023.7mb 25f
4:10pm 13 18 mph 1023.4mb 25f
4:00pm 15 18 mph 1023.4mb 25f
3:50pm 14 18 mph 1023mb 26f
3:40pm 15 18 mph 1023mb 26f
3:30pm 15 18 mph 1023mb 26f
3:20pm 15 18 mph 1022.7mb 26f
3:10pm 14 17 mph 1022.7mb 26f
3:00pm 15 17 mph 1022.4mb 26f
2:50pm 14 17 mph 1022.4mb 26f
2:40pm 14 16 mph 1022.4mb 26f
2:30pm 13 17 mph 1022.4mb 26f
2:20pm 15 18 mph 1022mb 26f
2:10pm 14 18 mph 1022mb 26f
2:00pm 15 18 mph 1022mb 26f
1:50pm 15 17 mph 1022mb 26f
1:40pm 14 17 mph 1022mb 26f
1:30pm 14 16 mph 1021.7mb 26f
1:20pm 13 15 mph 1021.7mb 26f
1:10pm  -  7 mph 1021.7mb 25f
1:00pm 1 7 mph 1021.7mb 25f
12:50pm 3 7 mph 1021.7mb 25f
12:40pm 2 6 mph 1021.7mb 25f
12:30pm 5 7 mph 1021.7mb 25f
12:20pm  -  7 mph 1021.7mb 24f
12:10pm 3 8 mph 1021.7mb 24f
12:00pm 5 8 mph 1021.7mb 24f
11:50am 5 8 mph 1021.7mb 24f
11:40am 3 8 mph 1022mb 24f
11:30am 5 8 mph 1022mb 23f
11:20am 2 8 mph 1022mb 23f
11:10am 5 7 mph 1022mb 23f
11:00am 5 8 mph 1022mb 23f
10:50am 5 7 mph 1022mb 23f
10:40am 5 7 mph 1022mb 22f
10:30am 6 8 mph 1022mb 22f
10:20am 5 7 mph 1022mb 22f
10:10am 5 7 mph 1022mb 22f
10:00am 5 7 mph 1022mb 22f
9:50am  -  6 mph 1021.7mb 22f
9:40am 3 6 mph 1022mb 22f
9:30am 5 8 mph 1022mb 21f
9:20am 5 7 mph 1021.7mb 21f
9:10am 5 6 mph 1021.7mb 21f
9:00am 5 6 mph 1021.7mb 21f
8:50am 3 6 mph 1021.7mb 21f
8:40am  -  5 mph 1021.3mb 20f
8:30am 2 5 mph 1021mb 20f
8:20am  -  2 mph 1021mb 20f
8:10am  -  2 mph 1021mb 20f
8:00am  -  mph 1021mb 20f
7:50am  -  5 mph 1021mb 20f
7:40am 2 3 mph 1021mb 20f
7:30am  -  3 mph 1020.7mb 20f
7:20am  -  mph 1020.7mb 20f
7:10am  -  mph 1020.3mb 19f
7:00am  -  3 mph 1020.3mb 19f
6:50am 1 3 mph 1020.3mb 19f
6:40am  -  3 mph 1020.3mb 19f
6:30am  -  3 mph 1020.3mb 19f
6:20am  -  10 mph 1020.3mb 19f
6:10am  -  3 mph 1020mb 19f
6:00am  -  10 mph 1020mb 19f
5:50am  -  6 mph 1020mb 19f
5:40am 1 5 mph 1020mb 19f
5:30am 1 6 mph 1020mb 19f
5:20am 2 5 mph 1020mb 19f
5:10am 2 7 mph 1020mb 19f
5:00am 2 8 mph 1020mb 19f
4:50am 3 9 mph 1020mb 19f
4:40am 3 8 mph 1020mb 19f
4:30am 2 7 mph 1020mb 19f
4:20am 2 7 mph 1019.6mb 19f
4:10am 1 6 mph 1019.6mb 19f
4:00am  -  7 mph 1020mb 19f
3:50am 2 7 mph 1020mb 19f
3:40am  -  5 mph 1020mb 19f
3:30am  -  5 mph 1020mb 19f
3:20am  -  2 mph 1020mb 19f
3:10am  -  3 mph 1020.3mb 18f
3:00am  -  5 mph 1020.3mb 18f
2:50am  -  5 mph 1020.3mb 18f
2:40am 2 6 mph 1020.3mb 18f
2:30am  -  7 mph 1020.3mb 18f
2:20am 6 8 mph 1020.3mb 18f
2:10am 5 25 mph 1020mb 17f
2:00am 3 7 mph 1020.3mb 17f
1:50am 3 16 mph 1020mb 17f
1:40am  -  9 mph 1020mb 16f
1:30am 3 6 mph 1020mb 15f
1:20am 3 5 mph 1020mb 15f
1:10am 3 6 mph 1019.6mb 14f
1:00am 3 6 mph 1019.6mb 13f
12:50am 5 7 mph 1019.6mb 13f
12:40am 6 7 mph 1019.6mb 13f
12:30am 3 6 mph 1019.3mb 13f
12:20am 3 6 mph 1019.3mb 13f
12:10am 3 7 mph 1019.6mb 13f
12:00am 6 8 mph 1019.6mb 13f
Tue 11/25 11:50pm 6 9 mph 1019.6mb 12f
11:40pm 6 9 mph 1019.6mb 12f
11:30pm 7 9 mph 1019.6mb 12f
11:20pm 7 9 mph 1019.3mb 12f
11:10pm 6 9 mph 1019.3mb 12f
11:00pm 6 8 mph 1019.3mb 12f
10:50pm 6 9 mph 1019.3mb 13f
10:40pm 5 9 mph 1019mb 12f
10:30pm 3 13 mph 1019.3mb 11f
10:20pm 5 14 mph 1019.3mb 12f
10:10pm 3 11 mph 1019.3mb 12f
10:00pm 2 15 mph 1019mb 11f
9:50pm 3 8 mph 1019mb 12f
9:40pm 5 7 mph 1019mb 12f
9:30pm 5 8 mph 1019mb 12f
9:20pm 3 8 mph 1019mb 12f
9:10pm  -  7 mph 1018.6mb 12f
9:00pm 2 10 mph 1018.6mb 12f
8:50pm  -  mph 1018.6mb 12f
8:40pm  -  mph 1018.6mb 13f
8:30pm  -  mph 1018.6mb 13f
8:20pm  -  mph 1018.6mb 13f
8:10pm  -  mph 1018.6mb 13f
8:00pm  -  mph 1018.3mb 13f
7:50pm  -  mph 1018.3mb 12f
7:40pm  -  mph 1018.3mb 13f
7:30pm  -  8 mph 1017.9mb 13f
7:20pm  -  mph 1017.9mb 13f
7:10pm  -  mph 1017.9mb 14f
7:00pm  -  mph 1017.6mb 14f
6:50pm  -  mph 1017.6mb 15f
6:40pm  -  mph 1017.6mb 15f
6:30pm  -  mph 1017.6mb 15f
6:20pm  -  mph 1017.9mb 15f
6:10pm  -  mph 1017.6mb 16f
6:00pm  -  mph 1017.3mb 16f
5:50pm  -  mph 1017.3mb 17f
5:40pm  -  mph 1017.3mb 17f
5:30pm  -  mph 1017.3mb 17f
5:20pm  -  mph 1017.3mb 17f
5:10pm  -  mph 1017.3mb 18f
5:00pm  -  mph 1017.3mb 18f
4:50pm  -  mph 1016.9mb 19f
4:40pm  -  mph 1016.9mb 22f
4:30pm  -  5 mph 1016.9mb 21f
4:20pm 2 7 mph 1016.6mb 22f
4:10pm 3 7 mph 1016.6mb 23f
4:00pm 3 10 mph 1016.3mb 23f
3:50pm 7 10 mph 1016.6mb 23f
3:40pm 7 10 mph 1016.6mb 24f
3:30pm 7 10 mph 1016.6mb 24f
3:20pm 2 10 mph 1016.6mb 24f
3:10pm 7 10 mph 1016.3mb 24f
3:00pm 5 8 mph 1016.3mb 24f
2:50pm 5 8 mph 1016.3mb 25f
2:40pm 3 8 mph 1015.9mb 24f
2:30pm 5 9 mph 1015.9mb 24f
2:20pm 5 9 mph 1016.3mb 24f
2:10pm 5 8 mph 1016.3mb 23f
2:00pm 5 14 mph 1016.3mb 23f
1:50pm 6 10 mph 1015.9mb 22f
1:40pm 7 10 mph 1016.3mb 22f
1:30pm 8 11 mph 1015.9mb 21f
1:20pm 9 14 mph 1016.3mb 21f
1:10pm 5 11 mph 1016.3mb 21f
1:00pm 9 11 mph 1016.6mb 21f
12:50pm 6 9 mph 1016.6mb 21f
12:40pm 1 8 mph 1016.6mb 20f
12:30pm 2 8 mph 1016.6mb 20f
12:20pm 2 7 mph 1016.6mb 20f
12:10pm 5 9 mph 1016.9mb 19f
12:00pm 6 11 mph 1016.9mb 19f
11:50am 6 13 mph 1016.6mb 20f
11:40am 7 10 mph 1016.6mb 20f
11:30am 8 10 mph 1016.6mb 20f
11:20am 8 11 mph 1016.6mb 20f
11:10am 9 13 mph 1016.6mb 19f
11:00am 8 13 mph 1016.6mb 19f
10:50am 9 14 mph 1016.6mb 19f
10:40am 8 11 mph 1016.6mb 19f
10:30am 8 11 mph 1016.3mb 19f
10:20am 3 10 mph 1016.3mb 19f
10:10am 6 11 mph 1016.3mb 19f
10:00am 7 10 mph 1015.9mb 19f
9:50am 5 10 mph 1015.9mb 19f
9:40am 6 11 mph 1015.9mb 19f
9:30am 7 11 mph 1015.9mb 19f
9:20am 6 9 mph 1015.6mb 19f
9:10am 5 9 mph 1015.6mb 19f
9:00am 5 9 mph 1015.2mb 19f
8:50am 5 10 mph 1015.2mb 18f
8:40am 5 9 mph 1014.9mb 18f
8:30am 5 10 mph 1014.6mb 19f
8:20am 3 8 mph 1014.6mb 19f
8:10am  -  11 mph 1014.6mb 19f
8:00am 5 10 mph 1014.2mb 19f
7:50am 7 14 mph 1014.2mb 18f
7:40am 5 13 mph 1014.2mb 18f
7:30am 5 11 mph 1014.2mb 19f
7:20am 6 11 mph 1013.9mb 19f
7:10am 7 13 mph 1013.9mb 19f
7:00am 5 14 mph 1013.9mb 19f
6:50am 5 9 mph 1013.9mb 19f
6:40am 7 11 mph 1013.9mb 19f
6:30am 3 13 mph 1013.9mb 19f
6:20am 2 8 mph 1013.5mb 20f
6:10am 7 13 mph 1013.5mb 19f
6:00am 3 8 mph 1013.2mb 20f
5:50am 6 11 mph 1013.2mb 21f
5:40am 5 11 mph 1013.2mb 21f
5:30am 7 13 mph 1013.2mb 21f
5:20am 9 14 mph 1012.9mb 22f
5:10am 7 13 mph 1012.9mb 21f
5:00am 6 14 mph 1012.9mb 21f
4:50am 10 21 mph 1012.9mb 22f
4:40am 15 22 mph 1012.2mb 23f
4:30am 20 26 mph 1012.2mb 23f
4:20am 18 24 mph 1011.9mb 23f
4:10am 22 24 mph 1011.9mb 23f
4:00am 18 21 mph 1011.9mb 24f
3:50am 14 21 mph 1011.5mb 24f
3:40am 18 23 mph 1011.5mb 23f
3:30am 18 22 mph 1011.5mb 24f
3:20am 20 24 mph 1011.5mb 23f
3:10am 16 22 mph 1011.2mb 24f
3:00am 16 23 mph 1011.2mb 24f
2:50am 17 22 mph 1011.2mb 24f
2:40am 16 21 mph 1010.8mb 24f
2:30am 17 24 mph 1010.8mb 24f
2:20am 17 22 mph 1010.5mb 24f
2:10am 16 22 mph 1010.5mb 24f
2:00am 17 22 mph 1010.5mb 24f
1:50am 17 22 mph 1010.2mb 24f
1:40am 18 22 mph 1010.2mb 24f
1:30am 18 25 mph 1009.8mb 24f
1:20am 22 25 mph 1009.8mb 24f
1:10am 17 24 mph 1009.5mb 24f
1:00am 21 25 mph 1009.1mb 24f
12:50am 20 25 mph 1009.1mb 24f
12:40am 22 29 mph 1009.1mb 25f
12:30am 21 25 mph 1008.8mb 24f
12:20am 22 26 mph 1008.8mb 25f
12:10am 22 29 mph 1008.5mb 25f
12:00am 22 26 mph 1008.5mb 25f
Mon 11/24 11:50pm 21 26 mph 1008.5mb 25f
11:40pm 23 28 mph 1008.1mb 25f
11:30pm 22 29 mph 1008.1mb 25f
11:20pm 24 29 mph 1007.8mb 25f
11:19pm 23 29 mph 1007.5mb 26f
11:10pm 22 26 mph 1007.8mb 26f
11:00pm 23 26 mph 1007.5mb 26f
10:50pm 23 28 mph 1007.5mb 26f
10:40pm 21 28 mph 1006.8mb 26f
10:30pm 22 28 mph 1006.8mb 25f
10:20pm 23 28 mph 1006.4mb 26f
10:10pm 23 26 mph 1006.4mb 26f
10:00pm 23 28 mph 1006.4mb 26f
9:50pm 21 26 mph 1006.1mb 26f
9:40pm 20 28 mph 1006.1mb 26f
9:30pm 22 26 mph 1005.8mb 26f
9:20pm 23 28 mph 1005.4mb 26f
9:10pm 22 26 mph 1005.4mb 26f
9:00pm 23 30 mph 1005.1mb 26f
8:50pm 24 29 mph 1004.7mb 26f
8:40pm 25 30 mph 1004.4mb 26f
8:38pm 24 30 mph 1004.4mb 26f
8:30pm 23 28 mph 1004.4mb 26f
8:20pm 22 30 mph 1004.4mb 26f
8:10pm 21 29 mph 1004.1mb 26f
8:00pm 24 28 mph 1004.1mb 26f
7:50pm 22 28 mph 1003.7mb 26f
7:40pm 22 28 mph 1003.7mb 26f
7:30pm 25 29 mph 1003.4mb 26f
7:28pm 22 29 mph 1003.4mb 26f
7:20pm 22 30 mph 1003mb 26f
7:10pm 22 30 mph 1002.7mb 26f
7:00pm 26 30 mph 1002.7mb 26f
6:50pm 22 28 mph 1002.4mb 26f
6:42pm 23
mph
1002.4mb 25f
6:40pm 22 29 mph 1002.4mb 25f
6:30pm 21 31 mph 1002mb 26f
6:20pm 25 30 mph 1001.7mb 25f
6:14pm 23 30 mph 1001.7mb 25f
6:10pm 25 28 mph 1001.7mb 25f
6:00pm 25 30 mph 1001.4mb 25f
5:50pm 26 30 mph 1001.4mb 25f
5:42pm 24
mph
1000.7mb 25f
5:40pm 25 30 mph 1000.7mb 25f
5:30pm 26 31 mph 1000.3mb 26f
5:20pm 23 31 mph 1000.3mb 25f
5:10pm 24 29 mph 1000mb 26f
5:07pm 24 29 mph 1000mb 26f
5:00pm 25 31 mph 1000mb 25f
4:50pm 25 30 mph 999.7mb 25f
4:40pm 25 29 mph 999.3mb 26f
4:30pm 22 28 mph 999.3mb 26f
4:20pm 24 30 mph 999mb 26f
4:10pm 24 30 mph 998.6mb 26f